sensor_id;sensor_type;location;lat;lon;timestamp;temperature;humidity
18456;DHT22;9357;49.900;8.208;2023-08-06T00:00:23;17.20;99.90
18456;DHT22;9357;49.900;8.208;2023-08-06T00:01:55;17.20;99.90
18456;DHT22;9357;49.900;8.208;2023-08-06T00:03:27;17.20;99.90
18456;DHT22;9357;49.900;8.208;2023-08-06T00:04:59;17.20;99.90
18456;DHT22;9357;49.900;8.208;2023-08-06T00:06:32;17.20;99.90
18456;DHT22;9357;49.900;8.208;2023-08-06T00:08:04;17.20;99.90
18456;DHT22;9357;49.900;8.208;2023-08-06T00:09:37;17.20;99.90
18456;DHT22;9357;49.900;8.208;2023-08-06T00:11:10;17.20;99.90
18456;DHT22;9357;49.900;8.208;2023-08-06T00:12:44;17.20;99.90
18456;DHT22;9357;49.900;8.208;2023-08-06T00:14:16;17.20;99.90
18456;DHT22;9357;49.900;8.208;2023-08-06T00:15:49;17.20;99.90
18456;DHT22;9357;49.900;8.208;2023-08-06T00:17:21;17.20;99.90
18456;DHT22;9357;49.900;8.208;2023-08-06T00:18:54;17.20;99.90
18456;DHT22;9357;49.900;8.208;2023-08-06T00:20:26;17.20;99.90
18456;DHT22;9357;49.900;8.208;2023-08-06T00:21:58;17.10;99.90
18456;DHT22;9357;49.900;8.208;2023-08-06T00:23:31;17.10;99.90
18456;DHT22;9357;49.900;8.208;2023-08-06T00:25:04;17.10;99.90
18456;DHT22;9357;49.900;8.208;2023-08-06T00:26:38;17.10;99.90
18456;DHT22;9357;49.900;8.208;2023-08-06T00:28:11;17.10;99.90
18456;DHT22;9357;49.900;8.208;2023-08-06T00:29:43;17.00;99.90
18456;DHT22;9357;49.900;8.208;2023-08-06T00:31:15;17.10;99.90
18456;DHT22;9357;49.900;8.208;2023-08-06T00:32:48;17.10;99.90
18456;DHT22;9357;49.900;8.208;2023-08-06T00:34:20;17.10;99.90
18456;DHT22;9357;49.900;8.208;2023-08-06T00:35:53;17.10;99.90
18456;DHT22;9357;49.900;8.208;2023-08-06T00:37:26;17.10;99.90
18456;DHT22;9357;49.900;8.208;2023-08-06T00:38:58;17.10;99.90
18456;DHT22;9357;49.900;8.208;2023-08-06T00:40:30;17.10;99.90
18456;DHT22;9357;49.900;8.208;2023-08-06T00:42:04;17.10;99.90
18456;DHT22;9357;49.900;8.208;2023-08-06T00:43:37;17.10;99.90
18456;DHT22;9357;49.900;8.208;2023-08-06T00:45:10;17.10;99.90
18456;DHT22;9357;49.900;8.208;2023-08-06T00:46:42;17.00;99.90
18456;DHT22;9357;49.900;8.208;2023-08-06T00:48:15;17.00;99.90
18456;DHT22;9357;49.900;8.208;2023-08-06T00:49:48;17.00;99.90
18456;DHT22;9357;49.900;8.208;2023-08-06T00:51:20;17.00;99.90
18456;DHT22;9357;49.900;8.208;2023-08-06T00:52:53;17.00;99.90
18456;DHT22;9357;49.900;8.208;2023-08-06T00:54:27;17.00;99.90
18456;DHT22;9357;49.900;8.208;2023-08-06T00:55:59;17.00;99.90
18456;DHT22;9357;49.900;8.208;2023-08-06T00:57:33;17.00;99.90
18456;DHT22;9357;49.900;8.208;2023-08-06T00:59:06;17.00;99.90
18456;DHT22;9357;49.900;8.208;2023-08-06T01:00:39;17.00;99.90
18456;DHT22;9357;49.900;8.208;2023-08-06T01:02:11;17.00;99.90
18456;DHT22;9357;49.900;8.208;2023-08-06T01:03:44;17.00;99.90
18456;DHT22;9357;49.900;8.208;2023-08-06T01:05:16;17.00;99.90
18456;DHT22;9357;49.900;8.208;2023-08-06T01:07:00;17.00;99.90
18456;DHT22;9357;49.900;8.208;2023-08-06T01:08:42;16.90;99.90
18456;DHT22;9357;49.900;8.208;2023-08-06T01:10:24;17.00;99.90
18456;DHT22;9357;49.900;8.208;2023-08-06T01:12:09;17.00;99.90
18456;DHT22;9357;49.900;8.208;2023-08-06T01:13:47;16.90;99.90
18456;DHT22;9357;49.900;8.208;2023-08-06T01:15:23;17.00;99.90
18456;DHT22;9357;49.900;8.208;2023-08-06T01:16:58;16.90;99.90
18456;DHT22;9357;49.900;8.208;2023-08-06T01:18:31;16.90;99.90
18456;DHT22;9357;49.900;8.208;2023-08-06T01:20:06;16.90;99.90
18456;DHT22;9357;49.900;8.208;2023-08-06T01:21:39;16.90;99.90
18456;DHT22;9357;49.900;8.208;2023-08-06T01:23:12;16.90;99.90
18456;DHT22;9357;49.900;8.208;2023-08-06T01:24:47;16.90;99.90
18456;DHT22;9357;49.900;8.208;2023-08-06T01:26:26;16.90;99.90
18456;DHT22;9357;49.900;8.208;2023-08-06T01:28:03;16.90;99.90
18456;DHT22;9357;49.900;8.208;2023-08-06T01:29:41;16.90;99.90
18456;DHT22;9357;49.900;8.208;2023-08-06T01:31:20;16.90;99.90
18456;DHT22;9357;49.900;8.208;2023-08-06T01:32:57;16.90;99.90
18456;DHT22;9357;49.900;8.208;2023-08-06T01:34:32;16.80;99.90
18456;DHT22;9357;49.900;8.208;2023-08-06T01:36:05;16.90;99.90
18456;DHT22;9357;49.900;8.208;2023-08-06T01:37:40;16.90;99.90
18456;DHT22;9357;49.900;8.208;2023-08-06T01:39:12;16.80;99.90
18456;DHT22;9357;49.900;8.208;2023-08-06T01:40:45;16.80;99.90
18456;DHT22;9357;49.900;8.208;2023-08-06T01:42:17;16.80;99.90
18456;DHT22;9357;49.900;8.208;2023-08-06T01:43:50;16.80;99.90
18456;DHT22;9357;49.900;8.208;2023-08-06T01:45:22;16.80;99.90
18456;DHT22;9357;49.900;8.208;2023-08-06T01:46:54;16.80;99.90
18456;DHT22;9357;49.900;8.208;2023-08-06T01:48:26;16.80;99.90
18456;DHT22;9357;49.900;8.208;2023-08-06T01:49:59;16.80;99.90
18456;DHT22;9357;49.900;8.208;2023-08-06T01:51:32;16.80;99.90
18456;DHT22;9357;49.900;8.208;2023-08-06T01:53:05;16.80;99.90
18456;DHT22;9357;49.900;8.208;2023-08-06T01:54:38;16.70;99.90
18456;DHT22;9357;49.900;8.208;2023-08-06T01:56:09;16.60;99.90
18456;DHT22;9357;49.900;8.208;2023-08-06T01:57:42;16.60;99.90
18456;DHT22;9357;49.900;8.208;2023-08-06T01:59:14;16.60;99.90
18456;DHT22;9357;49.900;8.208;2023-08-06T02:00:47;16.60;99.90
18456;DHT22;9357;49.900;8.208;2023-08-06T02:02:18;16.50;99.90
18456;DHT22;9357;49.900;8.208;2023-08-06T02:03:51;16.50;99.90
18456;DHT22;9357;49.900;8.208;2023-08-06T02:05:23;16.40;99.90
18456;DHT22;9357;49.900;8.208;2023-08-06T02:06:56;16.40;99.90
18456;DHT22;9357;49.900;8.208;2023-08-06T02:08:29;16.40;99.90
18456;DHT22;9357;49.900;8.208;2023-08-06T02:10:01;16.40;99.90
18456;DHT22;9357;49.900;8.208;2023-08-06T02:11:33;16.40;99.90
18456;DHT22;9357;49.900;8.208;2023-08-06T02:13:06;16.40;99.90
18456;DHT22;9357;49.900;8.208;2023-08-06T02:14:38;16.40;99.90
18456;DHT22;9357;49.900;8.208;2023-08-06T02:16:10;16.40;99.90
18456;DHT22;9357;49.900;8.208;2023-08-06T02:17:42;16.40;99.90
18456;DHT22;9357;49.900;8.208;2023-08-06T02:19:15;16.30;99.90
18456;DHT22;9357;49.900;8.208;2023-08-06T02:20:55;16.40;99.90
18456;DHT22;9357;49.900;8.208;2023-08-06T02:22:28;16.40;99.90
18456;DHT22;9357;49.900;8.208;2023-08-06T02:24:02;16.40;99.90
18456;DHT22;9357;49.900;8.208;2023-08-06T02:25:35;16.30;99.90
18456;DHT22;9357;49.900;8.208;2023-08-06T02:27:07;16.40;99.90
18456;DHT22;9357;49.900;8.208;2023-08-06T02:28:40;16.40;99.90
18456;DHT22;9357;49.900;8.208;2023-08-06T02:30:12;16.40;99.90
18456;DHT22;9357;49.900;8.208;2023-08-06T02:31:44;16.40;99.90
18456;DHT22;9357;49.900;8.208;2023-08-06T02:33:16;16.40;99.90
18456;DHT22;9357;49.900;8.208;2023-08-06T02:34:49;16.40;99.90
18456;DHT22;9357;49.900;8.208;2023-08-06T02:36:22;16.40;99.90
18456;DHT22;9357;49.900;8.208;2023-08-06T02:37:53;16.40;99.90
18456;DHT22;9357;49.900;8.208;2023-08-06T02:39:27;16.40;99.90
18456;DHT22;9357;49.900;8.208;2023-08-06T02:41:02;16.40;99.90
18456;DHT22;9357;49.900;8.208;2023-08-06T02:42:35;16.40;99.90
18456;DHT22;9357;49.900;8.208;2023-08-06T02:44:06;16.30;99.90
18456;DHT22;9357;49.900;8.208;2023-08-06T02:45:39;16.40;99.90
18456;DHT22;9357;49.900;8.208;2023-08-06T02:47:11;16.40;99.90
18456;DHT22;9357;49.900;8.208;2023-08-06T02:48:44;16.30;99.90
18456;DHT22;9357;49.900;8.208;2023-08-06T02:50:16;16.30;99.90
18456;DHT22;9357;49.900;8.208;2023-08-06T02:51:49;16.20;99.90
18456;DHT22;9357;49.900;8.208;2023-08-06T02:53:21;16.30;99.90
18456;DHT22;9357;49.900;8.208;2023-08-06T02:54:55;16.30;99.90
18456;DHT22;9357;49.900;8.208;2023-08-06T02:56:27;16.30;99.90
18456;DHT22;9357;49.900;8.208;2023-08-06T02:58:00;16.30;99.90
18456;DHT22;9357;49.900;8.208;2023-08-06T02:59:31;16.30;99.90
18456;DHT22;9357;49.900;8.208;2023-08-06T03:01:05;16.30;99.90
18456;DHT22;9357;49.900;8.208;2023-08-06T03:02:38;16.30;99.90
18456;DHT22;9357;49.900;8.208;2023-08-06T03:04:11;16.30;99.90
18456;DHT22;9357;49.900;8.208;2023-08-06T03:05:51;16.30;99.90
18456;DHT22;9357;49.900;8.208;2023-08-06T03:07:24;16.30;99.90
18456;DHT22;9357;49.900;8.208;2023-08-06T03:08:57;16.30;99.90
18456;DHT22;9357;49.900;8.208;2023-08-06T03:10:30;16.30;99.90
18456;DHT22;9357;49.900;8.208;2023-08-06T03:12:03;16.30;99.90
18456;DHT22;9357;49.900;8.208;2023-08-06T03:13:35;16.30;99.90
18456;DHT22;9357;49.900;8.208;2023-08-06T03:15:08;16.30;99.90
18456;DHT22;9357;49.900;8.208;2023-08-06T03:16:40;16.30;99.90
18456;DHT22;9357;49.900;8.208;2023-08-06T03:18:13;16.30;99.90
18456;DHT22;9357;49.900;8.208;2023-08-06T03:19:45;16.30;99.90
18456;DHT22;9357;49.900;8.208;2023-08-06T03:21:18;16.30;99.90
18456;DHT22;9357;49.900;8.208;2023-08-06T03:22:49;16.40;99.90
18456;DHT22;9357;49.900;8.208;2023-08-06T03:24:22;16.40;99.90
18456;DHT22;9357;49.900;8.208;2023-08-06T03:25:55;16.30;99.90
18456;DHT22;9357;49.900;8.208;2023-08-06T03:27:28;16.40;99.90
18456;DHT22;9357;49.900;8.208;2023-08-06T03:29:01;16.30;99.90
18456;DHT22;9357;49.900;8.208;2023-08-06T03:30:34;16.30;99.90
18456;DHT22;9357;49.900;8.208;2023-08-06T03:32:07;16.40;99.90
18456;DHT22;9357;49.900;8.208;2023-08-06T03:33:39;16.40;99.90
18456;DHT22;9357;49.900;8.208;2023-08-06T03:35:11;16.40;99.90
18456;DHT22;9357;49.900;8.208;2023-08-06T03:36:44;16.40;99.90
18456;DHT22;9357;49.900;8.208;2023-08-06T03:38:17;16.40;99.90
18456;DHT22;9357;49.900;8.208;2023-08-06T03:39:49;16.40;99.90
18456;DHT22;9357;49.900;8.208;2023-08-06T03:41:22;16.40;99.90
18456;DHT22;9357;49.900;8.208;2023-08-06T03:42:55;16.40;99.90
18456;DHT22;9357;49.900;8.208;2023-08-06T03:44:27;16.40;99.90
18456;DHT22;9357;49.900;8.208;2023-08-06T03:46:00;16.40;99.90
18456;DHT22;9357;49.900;8.208;2023-08-06T03:47:32;16.40;99.90
18456;DHT22;9357;49.900;8.208;2023-08-06T03:49:04;16.40;99.90
18456;DHT22;9357;49.900;8.208;2023-08-06T03:50:37;16.40;99.90
18456;DHT22;9357;49.900;8.208;2023-08-06T03:52:09;16.40;99.90
18456;DHT22;9357;49.900;8.208;2023-08-06T03:53:42;16.40;99.90
18456;DHT22;9357;49.900;8.208;2023-08-06T03:55:14;16.40;99.90
18456;DHT22;9357;49.900;8.208;2023-08-06T03:56:48;16.40;99.90
18456;DHT22;9357;49.900;8.208;2023-08-06T03:58:21;16.50;99.90
18456;DHT22;9357;49.900;8.208;2023-08-06T03:59:53;16.50;99.90
18456;DHT22;9357;49.900;8.208;2023-08-06T04:01:26;16.50;99.90
18456;DHT22;9357;49.900;8.208;2023-08-06T04:02:58;16.50;99.90
18456;DHT22;9357;49.900;8.208;2023-08-06T04:04:31;16.50;99.90
18456;DHT22;9357;49.900;8.208;2023-08-06T04:06:02;16.50;99.90
18456;DHT22;9357;49.900;8.208;2023-08-06T04:07:35;16.50;99.90
18456;DHT22;9357;49.900;8.208;2023-08-06T04:09:07;16.50;99.90
18456;DHT22;9357;49.900;8.208;2023-08-06T04:10:40;16.50;99.90
18456;DHT22;9357;49.900;8.208;2023-08-06T04:12:13;16.50;99.90
18456;DHT22;9357;49.900;8.208;2023-08-06T04:13:46;16.50;99.90
18456;DHT22;9357;49.900;8.208;2023-08-06T04:15:18;16.50;99.90
18456;DHT22;9357;49.900;8.208;2023-08-06T04:16:51;16.50;99.90
18456;DHT22;9357;49.900;8.208;2023-08-06T04:18:23;16.50;99.90
18456;DHT22;9357;49.900;8.208;2023-08-06T04:19:57;16.50;99.90
18456;DHT22;9357;49.900;8.208;2023-08-06T04:21:29;16.40;99.90
18456;DHT22;9357;49.900;8.208;2023-08-06T04:23:06;16.40;99.90
18456;DHT22;9357;49.900;8.208;2023-08-06T04:24:38;16.50;99.90
18456;DHT22;9357;49.900;8.208;2023-08-06T04:26:10;16.40;99.90
18456;DHT22;9357;49.900;8.208;2023-08-06T04:27:43;16.40;99.90
18456;DHT22;9357;49.900;8.208;2023-08-06T04:29:16;16.50;99.90
18456;DHT22;9357;49.900;8.208;2023-08-06T04:30:48;16.40;99.90
18456;DHT22;9357;49.900;8.208;2023-08-06T04:32:21;16.40;99.90
18456;DHT22;9357;49.900;8.208;2023-08-06T04:33:53;16.30;99.90
18456;DHT22;9357;49.900;8.208;2023-08-06T04:35:25;16.30;99.90
18456;DHT22;9357;49.900;8.208;2023-08-06T04:36:59;16.30;99.90
18456;DHT22;9357;49.900;8.208;2023-08-06T04:38:31;16.30;99.90
18456;DHT22;9357;49.900;8.208;2023-08-06T04:40:04;16.30;99.90
18456;DHT22;9357;49.900;8.208;2023-08-06T04:41:37;16.30;99.90
18456;DHT22;9357;49.900;8.208;2023-08-06T04:43:11;16.30;99.90
18456;DHT22;9357;49.900;8.208;2023-08-06T04:44:42;16.20;99.90
18456;DHT22;9357;49.900;8.208;2023-08-06T04:46:15;16.30;99.90
18456;DHT22;9357;49.900;8.208;2023-08-06T04:47:47;16.20;99.90
18456;DHT22;9357;49.900;8.208;2023-08-06T04:49:20;16.20;99.90
18456;DHT22;9357;49.900;8.208;2023-08-06T04:50:52;16.20;99.90
18456;DHT22;9357;49.900;8.208;2023-08-06T04:52:26;16.20;99.90
18456;DHT22;9357;49.900;8.208;2023-08-06T04:53:59;16.20;99.90
18456;DHT22;9357;49.900;8.208;2023-08-06T04:55:31;16.20;99.90
18456;DHT22;9357;49.900;8.208;2023-08-06T04:57:05;16.10;99.90
18456;DHT22;9357;49.900;8.208;2023-08-06T04:58:38;16.10;99.90
18456;DHT22;9357;49.900;8.208;2023-08-06T05:00:11;16.10;99.90
18456;DHT22;9357;49.900;8.208;2023-08-06T05:01:43;16.10;99.90
18456;DHT22;9357;49.900;8.208;2023-08-06T05:03:16;16.00;99.90
18456;DHT22;9357;49.900;8.208;2023-08-06T05:04:47;16.10;99.90
18456;DHT22;9357;49.900;8.208;2023-08-06T05:06:20;16.00;99.90
18456;DHT22;9357;49.900;8.208;2023-08-06T05:07:55;16.10;99.90
18456;DHT22;9357;49.900;8.208;2023-08-06T05:09:27;16.00;99.90
18456;DHT22;9357;49.900;8.208;2023-08-06T05:10:59;16.00;99.90
18456;DHT22;9357;49.900;8.208;2023-08-06T05:12:31;16.00;99.90
18456;DHT22;9357;49.900;8.208;2023-08-06T05:14:05;16.00;99.90
18456;DHT22;9357;49.900;8.208;2023-08-06T05:15:37;16.00;99.90
18456;DHT22;9357;49.900;8.208;2023-08-06T05:17:11;16.00;99.90
18456;DHT22;9357;49.900;8.208;2023-08-06T05:18:42;15.90;99.90
18456;DHT22;9357;49.900;8.208;2023-08-06T05:20:15;16.00;99.90
18456;DHT22;9357;49.900;8.208;2023-08-06T05:21:47;16.00;99.90
18456;DHT22;9357;49.900;8.208;2023-08-06T05:23:20;16.00;99.90
18456;DHT22;9357;49.900;8.208;2023-08-06T05:24:52;16.00;99.90
18456;DHT22;9357;49.900;8.208;2023-08-06T05:26:24;16.00;99.90
18456;DHT22;9357;49.900;8.208;2023-08-06T05:27:56;16.00;99.90
18456;DHT22;9357;49.900;8.208;2023-08-06T05:29:30;16.00;99.90
18456;DHT22;9357;49.900;8.208;2023-08-06T05:31:03;16.00;99.90
18456;DHT22;9357;49.900;8.208;2023-08-06T05:32:36;16.00;99.90
18456;DHT22;9357;49.900;8.208;2023-08-06T05:34:08;16.10;99.90
18456;DHT22;9357;49.900;8.208;2023-08-06T05:35:40;16.00;99.90
18456;DHT22;9357;49.900;8.208;2023-08-06T05:37:13;16.00;99.90
18456;DHT22;9357;49.900;8.208;2023-08-06T05:38:45;16.10;99.90
18456;DHT22;9357;49.900;8.208;2023-08-06T05:40:18;16.00;99.90
18456;DHT22;9357;49.900;8.208;2023-08-06T05:41:50;16.10;99.90
18456;DHT22;9357;49.900;8.208;2023-08-06T05:43:24;16.10;99.90
18456;DHT22;9357;49.900;8.208;2023-08-06T05:44:57;16.10;99.90
18456;DHT22;9357;49.900;8.208;2023-08-06T05:46:30;16.10;99.90
18456;DHT22;9357;49.900;8.208;2023-08-06T05:48:02;16.10;99.90
18456;DHT22;9357;49.900;8.208;2023-08-06T05:49:35;16.10;99.90
18456;DHT22;9357;49.900;8.208;2023-08-06T05:51:06;16.10;99.90
18456;DHT22;9357;49.900;8.208;2023-08-06T05:52:39;16.10;99.90
18456;DHT22;9357;49.900;8.208;2023-08-06T05:54:11;16.10;99.90
18456;DHT22;9357;49.900;8.208;2023-08-06T05:55:44;16.10;99.90
18456;DHT22;9357;49.900;8.208;2023-08-06T05:57:16;16.10;99.90
18456;DHT22;9357;49.900;8.208;2023-08-06T05:58:49;16.10;99.90
18456;DHT22;9357;49.900;8.208;2023-08-06T06:00:25;16.10;99.90
18456;DHT22;9357;49.900;8.208;2023-08-06T06:01:57;16.10;99.90
18456;DHT22;9357;49.900;8.208;2023-08-06T06:03:30;16.10;99.90
18456;DHT22;9357;49.900;8.208;2023-08-06T06:05:02;16.10;99.90
18456;DHT22;9357;49.900;8.208;2023-08-06T06:06:35;16.10;99.90
18456;DHT22;9357;49.900;8.208;2023-08-06T06:08:06;16.00;99.90
18456;DHT22;9357;49.900;8.208;2023-08-06T06:09:39;16.10;99.90
18456;DHT22;9357;49.900;8.208;2023-08-06T06:11:11;16.10;99.90
18456;DHT22;9357;49.900;8.208;2023-08-06T06:12:44;16.00;99.90
18456;DHT22;9357;49.900;8.208;2023-08-06T06:14:16;16.00;99.90
18456;DHT22;9357;49.900;8.208;2023-08-06T06:15:50;16.00;99.90
18456;DHT22;9357;49.900;8.208;2023-08-06T06:17:22;16.10;99.90
18456;DHT22;9357;49.900;8.208;2023-08-06T06:18:54;16.10;99.90
18456;DHT22;9357;49.900;8.208;2023-08-06T06:20:28;16.10;99.90
18456;DHT22;9357;49.900;8.208;2023-08-06T06:22:00;16.10;99.90
18456;DHT22;9357;49.900;8.208;2023-08-06T06:23:33;16.10;99.90
18456;DHT22;9357;49.900;8.208;2023-08-06T06:25:06;16.10;99.90
18456;DHT22;9357;49.900;8.208;2023-08-06T06:26:39;16.10;99.90
18456;DHT22;9357;49.900;8.208;2023-08-06T06:28:10;16.10;99.90
18456;DHT22;9357;49.900;8.208;2023-08-06T06:29:43;16.10;99.90
18456;DHT22;9357;49.900;8.208;2023-08-06T06:31:16;16.10;99.90
18456;DHT22;9357;49.900;8.208;2023-08-06T06:32:49;16.10;99.90
18456;DHT22;9357;49.900;8.208;2023-08-06T06:34:22;16.10;99.90
18456;DHT22;9357;49.900;8.208;2023-08-06T06:35:54;16.10;99.90
18456;DHT22;9357;49.900;8.208;2023-08-06T06:37:26;16.20;99.90
18456;DHT22;9357;49.900;8.208;2023-08-06T06:38:58;16.10;99.90
18456;DHT22;9357;49.900;8.208;2023-08-06T06:40:31;16.20;99.90
18456;DHT22;9357;49.900;8.208;2023-08-06T06:42:05;16.10;99.90
18456;DHT22;9357;49.900;8.208;2023-08-06T06:43:37;16.20;99.90
18456;DHT22;9357;49.900;8.208;2023-08-06T06:45:11;16.10;99.90
18456;DHT22;9357;49.900;8.208;2023-08-06T06:46:45;16.10;99.90
18456;DHT22;9357;49.900;8.208;2023-08-06T06:48:18;16.10;99.90
18456;DHT22;9357;49.900;8.208;2023-08-06T06:49:50;16.10;99.90
18456;DHT22;9357;49.900;8.208;2023-08-06T06:51:22;16.20;99.90
18456;DHT22;9357;49.900;8.208;2023-08-06T06:52:55;16.20;99.90
18456;DHT22;9357;49.900;8.208;2023-08-06T06:54:27;16.20;99.90
18456;DHT22;9357;49.900;8.208;2023-08-06T06:56:02;16.20;99.90
18456;DHT22;9357;49.900;8.208;2023-08-06T06:57:34;16.20;99.90
18456;DHT22;9357;49.900;8.208;2023-08-06T06:59:06;16.20;99.90
18456;DHT22;9357;49.900;8.208;2023-08-06T07:00:38;16.20;99.90
18456;DHT22;9357;49.900;8.208;2023-08-06T07:02:12;16.20;99.90
18456;DHT22;9357;49.900;8.208;2023-08-06T07:03:45;16.20;99.90
18456;DHT22;9357;49.900;8.208;2023-08-06T07:05:17;16.20;99.90
18456;DHT22;9357;49.900;8.208;2023-08-06T07:06:50;16.20;99.90
18456;DHT22;9357;49.900;8.208;2023-08-06T07:08:23;16.20;99.90
18456;DHT22;9357;49.900;8.208;2023-08-06T07:09:56;16.30;99.90
18456;DHT22;9357;49.900;8.208;2023-08-06T07:11:29;16.20;99.90
18456;DHT22;9357;49.900;8.208;2023-08-06T07:13:00;16.30;99.90
18456;DHT22;9357;49.900;8.208;2023-08-06T07:14:33;16.30;99.90
18456;DHT22;9357;49.900;8.208;2023-08-06T07:16:05;16.30;99.90
18456;DHT22;9357;49.900;8.208;2023-08-06T07:17:43;16.30;99.90
18456;DHT22;9357;49.900;8.208;2023-08-06T07:19:15;16.30;99.90
18456;DHT22;9357;49.900;8.208;2023-08-06T07:20:48;16.30;99.90
18456;DHT22;9357;49.900;8.208;2023-08-06T07:22:20;16.30;99.90
18456;DHT22;9357;49.900;8.208;2023-08-06T07:23:53;16.30;99.90
18456;DHT22;9357;49.900;8.208;2023-08-06T07:25:24;16.40;99.90
18456;DHT22;9357;49.900;8.208;2023-08-06T07:26:57;16.40;99.90
18456;DHT22;9357;49.900;8.208;2023-08-06T07:28:30;16.50;99.90
18456;DHT22;9357;49.900;8.208;2023-08-06T07:30:02;16.50;99.90
18456;DHT22;9357;49.900;8.208;2023-08-06T07:31:36;16.60;99.90
18456;DHT22;9357;49.900;8.208;2023-08-06T07:33:11;16.70;99.90
18456;DHT22;9357;49.900;8.208;2023-08-06T07:34:43;16.80;99.90
18456;DHT22;9357;49.900;8.208;2023-08-06T07:36:15;16.90;99.90
18456;DHT22;9357;49.900;8.208;2023-08-06T07:37:50;17.00;99.90
18456;DHT22;9357;49.900;8.208;2023-08-06T07:39:22;17.10;99.90
18456;DHT22;9357;49.900;8.208;2023-08-06T07:40:55;17.20;99.90
18456;DHT22;9357;49.900;8.208;2023-08-06T07:42:28;17.20;99.90
18456;DHT22;9357;49.900;8.208;2023-08-06T07:43:59;17.30;99.90
18456;DHT22;9357;49.900;8.208;2023-08-06T07:45:33;17.40;99.90
18456;DHT22;9357;49.900;8.208;2023-08-06T07:47:07;17.50;99.90
18456;DHT22;9357;49.900;8.208;2023-08-06T07:48:40;17.60;99.90
18456;DHT22;9357;49.900;8.208;2023-08-06T07:50:13;17.60;99.90
18456;DHT22;9357;49.900;8.208;2023-08-06T07:51:45;17.70;99.90
18456;DHT22;9357;49.900;8.208;2023-08-06T07:53:17;17.70;99.90
18456;DHT22;9357;49.900;8.208;2023-08-06T07:54:49;17.90;99.90
18456;DHT22;9357;49.900;8.208;2023-08-06T07:56:22;18.00;99.90
18456;DHT22;9357;49.900;8.208;2023-08-06T07:57:55;18.20;99.90
18456;DHT22;9357;49.900;8.208;2023-08-06T07:59:27;18.30;99.90
18456;DHT22;9357;49.900;8.208;2023-08-06T08:00:59;18.50;99.90
18456;DHT22;9357;49.900;8.208;2023-08-06T08:02:36;18.70;99.90
18456;DHT22;9357;49.900;8.208;2023-08-06T08:04:09;19.00;99.90
18456;DHT22;9357;49.900;8.208;2023-08-06T08:05:42;19.10;99.90
18456;DHT22;9357;49.900;8.208;2023-08-06T08:07:14;19.30;99.90
18456;DHT22;9357;49.900;8.208;2023-08-06T08:08:47;19.40;99.90
18456;DHT22;9357;49.900;8.208;2023-08-06T08:10:19;19.50;99.90
18456;DHT22;9357;49.900;8.208;2023-08-06T08:11:52;19.50;99.90
18456;DHT22;9357;49.900;8.208;2023-08-06T08:13:24;19.50;99.90
18456;DHT22;9357;49.900;8.208;2023-08-06T08:14:57;19.50;99.90
18456;DHT22;9357;49.900;8.208;2023-08-06T08:16:28;19.60;99.90
18456;DHT22;9357;49.900;8.208;2023-08-06T08:18:01;19.60;99.90
18456;DHT22;9357;49.900;8.208;2023-08-06T08:19:35;19.60;99.90
18456;DHT22;9357;49.900;8.208;2023-08-06T08:21:07;19.50;99.90
18456;DHT22;9357;49.900;8.208;2023-08-06T08:22:39;19.60;99.90
18456;DHT22;9357;49.900;8.208;2023-08-06T08:24:12;19.60;99.90
18456;DHT22;9357;49.900;8.208;2023-08-06T08:25:45;19.60;99.90
18456;DHT22;9357;49.900;8.208;2023-08-06T08:27:16;19.60;99.90
18456;DHT22;9357;49.900;8.208;2023-08-06T08:28:49;19.60;99.90
18456;DHT22;9357;49.900;8.208;2023-08-06T08:30:21;19.60;99.90
18456;DHT22;9357;49.900;8.208;2023-08-06T08:31:56;19.70;99.90
18456;DHT22;9357;49.900;8.208;2023-08-06T08:33:28;19.70;99.90
18456;DHT22;9357;49.900;8.208;2023-08-06T08:35:03;19.70;99.90
18456;DHT22;9357;49.900;8.208;2023-08-06T08:36:35;19.70;99.90
18456;DHT22;9357;49.900;8.208;2023-08-06T08:38:07;19.60;99.90
18456;DHT22;9357;49.900;8.208;2023-08-06T08:39:40;19.60;99.90
18456;DHT22;9357;49.900;8.208;2023-08-06T08:41:12;19.60;99.90
18456;DHT22;9357;49.900;8.208;2023-08-06T08:42:45;19.60;99.90
18456;DHT22;9357;49.900;8.208;2023-08-06T08:44:18;19.50;99.90
18456;DHT22;9357;49.900;8.208;2023-08-06T08:45:52;19.50;99.90
18456;DHT22;9357;49.900;8.208;2023-08-06T08:47:26;19.50;99.90
18456;DHT22;9357;49.900;8.208;2023-08-06T08:48:59;19.40;99.90
18456;DHT22;9357;49.900;8.208;2023-08-06T08:50:34;19.30;99.90
18456;DHT22;9357;49.900;8.208;2023-08-06T08:52:06;19.30;99.90
18456;DHT22;9357;49.900;8.208;2023-08-06T08:53:43;19.30;99.90
18456;DHT22;9357;49.900;8.208;2023-08-06T08:55:15;19.20;99.90
18456;DHT22;9357;49.900;8.208;2023-08-06T08:56:48;19.20;99.90
18456;DHT22;9357;49.900;8.208;2023-08-06T08:58:20;19.10;99.90
18456;DHT22;9357;49.900;8.208;2023-08-06T08:59:53;19.10;99.90
18456;DHT22;9357;49.900;8.208;2023-08-06T09:01:26;19.10;99.90
18456;DHT22;9357;49.900;8.208;2023-08-06T09:03:00;19.10;99.90
18456;DHT22;9357;49.900;8.208;2023-08-06T09:04:33;19.10;99.90
18456;DHT22;9357;49.900;8.208;2023-08-06T09:06:11;19.00;99.90
18456;DHT22;9357;49.900;8.208;2023-08-06T09:07:48;19.00;99.90
18456;DHT22;9357;49.900;8.208;2023-08-06T09:09:25;19.00;99.90
18456;DHT22;9357;49.900;8.208;2023-08-06T09:10:59;19.00;99.90
18456;DHT22;9357;49.900;8.208;2023-08-06T09:12:32;19.00;99.90
18456;DHT22;9357;49.900;8.208;2023-08-06T09:14:06;19.00;99.90
18456;DHT22;9357;49.900;8.208;2023-08-06T09:15:38;19.00;99.90
18456;DHT22;9357;49.900;8.208;2023-08-06T09:17:11;19.00;99.90
18456;DHT22;9357;49.900;8.208;2023-08-06T09:18:44;19.00;99.90
18456;DHT22;9357;49.900;8.208;2023-08-06T09:20:17;19.10;99.90
18456;DHT22;9357;49.900;8.208;2023-08-06T09:21:51;19.10;99.90
18456;DHT22;9357;49.900;8.208;2023-08-06T09:23:28;19.10;99.90
18456;DHT22;9357;49.900;8.208;2023-08-06T09:25:01;19.20;99.90
18456;DHT22;9357;49.900;8.208;2023-08-06T09:26:35;19.20;99.90
18456;DHT22;9357;49.900;8.208;2023-08-06T09:28:07;19.30;99.90
18456;DHT22;9357;49.900;8.208;2023-08-06T09:29:41;19.40;99.90
18456;DHT22;9357;49.900;8.208;2023-08-06T09:31:14;19.50;99.90
18456;DHT22;9357;49.900;8.208;2023-08-06T09:32:48;19.50;99.90
18456;DHT22;9357;49.900;8.208;2023-08-06T09:34:22;19.70;99.90
18456;DHT22;9357;49.900;8.208;2023-08-06T09:35:55;19.70;99.90
18456;DHT22;9357;49.900;8.208;2023-08-06T09:37:35;19.80;99.90
18456;DHT22;9357;49.900;8.208;2023-08-06T09:39:13;19.80;99.90
18456;DHT22;9357;49.900;8.208;2023-08-06T09:40:45;19.80;99.90
18456;DHT22;9357;49.900;8.208;2023-08-06T09:42:19;19.90;99.90
18456;DHT22;9357;49.900;8.208;2023-08-06T09:43:51;19.90;99.90
18456;DHT22;9357;49.900;8.208;2023-08-06T09:45:29;19.90;99.90
18456;DHT22;9357;49.900;8.208;2023-08-06T09:47:03;19.80;99.90
18456;DHT22;9357;49.900;8.208;2023-08-06T09:48:36;19.90;99.90
18456;DHT22;9357;49.900;8.208;2023-08-06T09:50:15;19.80;99.90
18456;DHT22;9357;49.900;8.208;2023-08-06T09:51:48;19.80;99.90
18456;DHT22;9357;49.900;8.208;2023-08-06T09:53:24;19.80;99.90
18456;DHT22;9357;49.900;8.208;2023-08-06T09:54:57;19.80;99.90
18456;DHT22;9357;49.900;8.208;2023-08-06T09:56:31;19.80;99.90